Portada
METAR-TAF:

METAR-TAF

Aeroports :

Aoba Island, Vanuatu

latitud: 15-18-24S, longitud: 167-58-02E, altitud: 51 m

METAR: manca

Hora: 12:02 (01:02 UTC)

Pronòstic

L'informe es va fer fa 2 hores i 42 minuts, a les 22:20 UTC
Pronòstic vàlid del 22 a les 00 UTC al 22 a les 24 UTC
Vent 6 kt del Est
Visibilitat: 9000 m
Núvols disperses a una alçada de 1800 ft
Cel ennuvolat a una alçada de 4000 ft
Cel ennuvolat a una alçada de 1800 ft
xàfecs de pluja

TAF: NVSG 212220Z 2200/2224 08006KT 9999 SCT018 BKN040 INTER 2200/2206 9000 -SHRA BKN018

Observacions i pronòstics meteorològics de més de 4000 aeroports (METAR i TAF).

Les estacions disponibles són els punts grocs i vermells al mapa.

Posi el ratolí al punt desitjat per veure el nom de l'estació.

Feu clic per veure les observacions i els pronòstics meteorològics.

Per canviar el mapa: feu clic els botons verds amb una creu de color negre per apropar; al botó verd amb un guió per allunyar la imatge; o en les fletxes verdes per a mapes adjacents.


METAR-TAF: